createdAt,value
2022-10-06T00:00:06.840Z,92.98
2022-10-06T00:02:53.790Z,92.98
2022-10-06T00:05:33.822Z,92.56
2022-10-06T00:08:20.702Z,92.84
2022-10-06T00:11:10.678Z,93.63
2022-10-06T00:13:51.072Z,93.57
2022-10-06T00:16:37.717Z,94.08
2022-10-06T00:19:18.088Z,93.09
2022-10-06T00:22:04.692Z,93.05
2022-10-06T00:24:45.854Z,92.33
2022-10-06T00:27:32.704Z,92.37
2022-10-06T00:30:23.663Z,92.57
2022-10-06T00:33:15.693Z,92.18
2022-10-06T00:36:04.665Z,91.87
2022-10-06T00:38:44.770Z,92.18
2022-10-06T00:41:31.667Z,91.65
2022-10-06T00:44:11.783Z,90.73
2022-10-06T00:47:00.628Z,90.20
2022-10-06T00:49:44.774Z,89.93
2022-10-06T00:52:36.630Z,89.93
2022-10-06T00:55:16.779Z,90.61
2022-10-06T00:58:05.637Z,90.50
2022-10-06T01:00:48.784Z,90.13
2022-10-06T01:03:39.666Z,91.06
2022-10-06T01:06:20.955Z,91.00
2022-10-06T01:09:07.660Z,91.03
2022-10-06T01:11:47.741Z,91.57
2022-10-06T01:14:35.617Z,91.57
2022-10-06T01:17:36.647Z,92.28
2022-10-06T01:20:19.645Z,92.31
2022-10-06T01:23:11.626Z,93.12
2022-10-06T01:25:53.463Z,93.46
2022-10-06T01:28:41.682Z,93.50
2022-10-06T01:31:22.631Z,93.58
2022-10-06T01:34:09.606Z,94.03
2022-10-06T01:36:56.698Z,93.96
2022-10-06T01:39:36.726Z,94.13
2022-10-06T01:42:16.993Z,94.17
2022-10-06T01:45:03.587Z,93.78
2022-10-06T01:47:44.001Z,93.54
2022-10-06T01:50:30.569Z,93.04
2022-10-06T01:53:11.459Z,92.94
2022-10-06T01:55:58.599Z,92.25
2022-10-06T01:58:38.964Z,92.42
2022-10-06T02:01:25.633Z,92.23
2022-10-06T02:04:12.603Z,92.28
2022-10-06T02:06:55.452Z,92.85
2022-10-06T02:09:42.551Z,92.84
2022-10-06T02:12:24.173Z,92.65
2022-10-06T02:15:11.552Z,92.52
2022-10-06T02:17:51.667Z,92.42
2022-10-06T02:20:40.560Z,92.73
2022-10-06T02:23:27.509Z,93.24
2022-10-06T02:26:23.533Z,93.45
2022-10-06T02:29:03.905Z,93.74
2022-10-06T02:31:50.520Z,93.96
2022-10-06T02:34:30.905Z,93.83
2022-10-06T02:37:17.532Z,94.73
2022-10-06T02:40:04.543Z,94.68
2022-10-06T02:42:46.025Z,94.69
2022-10-06T02:45:34.505Z,95.14
2022-10-06T02:48:21.493Z,94.89
2022-10-06T02:51:09.621Z,95.13
2022-10-06T02:54:00.477Z,95.10
2022-10-06T02:56:47.499Z,95.70
2022-10-06T02:59:27.634Z,95.43
2022-10-06T03:02:14.592Z,94.81
2022-10-06T03:05:01.461Z,95.59
2022-10-06T03:25:37.553Z,99.11
2022-10-06T03:28:18.266Z,98.36
2022-10-06T03:31:05.547Z,97.83
2022-10-06T03:33:52.529Z,96.61
2022-10-06T03:36:44.536Z,96.77
2022-10-06T03:39:34.511Z,96.06
2022-10-06T03:42:21.549Z,95.13
2022-10-06T03:45:01.841Z,94.82
2022-10-06T03:47:48.503Z,94.95
2022-10-06T03:50:35.490Z,94.76
2022-10-06T03:53:15.615Z,94.82
2022-10-06T03:56:08.511Z,94.71
2022-10-06T03:58:58.470Z,94.50
2022-10-06T04:01:47.828Z,94.99
2022-10-06T04:04:39.455Z,94.62
2022-10-06T04:07:26.469Z,94.82
2022-10-06T04:10:06.549Z,94.52
2022-10-06T04:12:53.460Z,94.55
2022-10-06T04:15:33.562Z,94.11
2022-10-06T04:18:22.014Z,94.21
2022-10-06T04:21:13.445Z,94.15
2022-10-06T04:24:02.823Z,93.68
2022-10-06T04:26:52.471Z,91.99
2022-10-06T04:29:40.463Z,90.84
2022-10-06T04:32:20.526Z,89.38
2022-10-06T04:35:07.439Z,88.57
2022-10-06T04:37:47.545Z,88.10
2022-10-06T04:40:34.450Z,88.13
2022-10-06T04:43:15.536Z,86.67
2022-10-06T04:46:24.032Z,86.00
2022-10-06T04:49:06.553Z,85.12
2022-10-06T04:51:56.376Z,83.18
2022-10-06T04:54:46.428Z,82.75
2022-10-06T04:57:34.506Z,82.18
2022-10-06T05:00:43.489Z,81.69
2022-10-06T05:03:30.406Z,81.42
2022-10-06T05:06:17.553Z,81.47
2022-10-06T05:09:10.376Z,80.91
2022-10-06T05:11:54.509Z,80.87
2022-10-06T05:14:41.383Z,80.40
2022-10-06T05:17:22.470Z,79.75
2022-10-06T05:20:09.379Z,78.67
2022-10-06T05:22:50.469Z,79.42
2022-10-06T05:25:37.385Z,78.57
2022-10-06T05:28:24.392Z,79.68
2022-10-06T05:31:11.976Z,79.60
2022-10-06T05:33:59.402Z,78.16
2022-10-06T05:36:39.806Z,77.76
2022-10-06T05:39:26.366Z,76.78
2022-10-06T05:42:06.751Z,74.88
2022-10-06T05:44:53.363Z,72.74
2022-10-06T05:47:33.701Z,71.31
2022-10-06T05:50:20.842Z,70.29
2022-10-06T05:53:07.321Z,66.50
2022-10-06T05:55:47.432Z,60.79
2022-10-06T05:58:35.701Z,58.17
2022-10-06T06:01:25.515Z,55.62
2022-10-06T06:04:15.353Z,52.03
2022-10-06T06:07:06.301Z,48.82
2022-10-06T06:09:55.341Z,48.56
2022-10-06T06:12:35.381Z,46.89
2022-10-06T06:16:03.299Z,44.55
2022-10-06T06:18:44.399Z,43.96
2022-10-06T06:21:32.310Z,43.04
2022-10-06T06:24:26.320Z,41.77
2022-10-06T06:27:13.265Z,44.31
2022-10-06T06:29:53.445Z,43.05
2022-10-06T06:32:41.295Z,43.60
2022-10-06T06:35:28.313Z,41.73
2022-10-06T06:38:18.252Z,38.23
2022-10-06T06:40:58.409Z,35.63
2022-10-06T06:43:45.287Z,35.81
2022-10-06T06:46:51.281Z,34.16
2022-10-06T06:49:31.643Z,33.13
2022-10-06T06:52:21.282Z,31.54
2022-10-06T06:55:08.259Z,32.02
2022-10-06T06:57:49.634Z,32.66
2022-10-06T07:00:37.245Z,34.84
2022-10-06T07:03:56.773Z,35.79
2022-10-06T07:06:40.661Z,32.38
2022-10-06T07:09:27.267Z,34.27
2022-10-06T07:12:25.239Z,32.66
2022-10-06T07:15:25.210Z,32.21
2022-10-06T07:18:30.746Z,32.19
2022-10-06T07:21:42.967Z,32.46
2022-10-06T07:24:48.243Z,33.58
2022-10-06T07:27:28.455Z,37.33
2022-10-06T07:30:25.258Z,36.41
2022-10-06T07:33:20.332Z,34.44
2022-10-06T07:36:07.256Z,35.81
2022-10-06T07:38:55.217Z,34.95
2022-10-06T07:41:42.377Z,31.30
2022-10-06T07:44:22.238Z,30.30
2022-10-06T07:47:02.713Z,29.25
2022-10-06T07:50:06.244Z,25.74
2022-10-06T07:52:47.849Z,24.46
2022-10-06T07:55:34.218Z,22.52
2022-10-06T07:58:26.504Z,25.72
2022-10-06T08:01:20.324Z,25.01
2022-10-06T08:04:07.227Z,25.79
2022-10-06T08:06:56.195Z,27.19
2022-10-06T08:09:44.314Z,26.55
2022-10-06T08:12:33.434Z,22.89
2022-10-06T08:15:21.186Z,25.06
2022-10-06T08:18:01.264Z,26.40
2022-10-06T08:20:48.227Z,21.18
2022-10-06T08:23:28.279Z,22.52
2022-10-06T08:26:16.137Z,20.07
2022-10-06T08:29:03.471Z,22.85
2022-10-06T08:31:50.187Z,20.81
2022-10-06T08:34:30.318Z,21.91
2022-10-06T08:37:20.327Z,19.38
2022-10-06T08:40:01.256Z,20.32
2022-10-06T08:42:51.179Z,21.11
2022-10-06T08:45:42.283Z,21.40
2022-10-06T08:48:35.135Z,22.21
2022-10-06T08:51:29.169Z,22.03
2022-10-06T08:54:28.183Z,23.53
2022-10-06T08:57:31.157Z,22.92
2022-10-06T09:00:22.272Z,23.86
2022-10-06T09:03:02.678Z,23.21
2022-10-06T09:05:49.164Z,24.19
2022-10-06T09:09:04.144Z,22.87
2022-10-06T09:11:54.622Z,21.84
2022-10-06T09:14:49.153Z,23.02
2022-10-06T09:17:35.323Z,24.00
2022-10-06T09:20:32.327Z,26.14
2022-10-06T09:23:17.476Z,25.76
2022-10-06T09:26:04.134Z,24.41
2022-10-06T09:28:54.112Z,24.03
2022-10-06T09:31:47.103Z,23.82
2022-10-06T09:35:02.185Z,23.89
2022-10-06T09:38:14.258Z,22.06
2022-10-06T09:41:02.135Z,23.58
2022-10-06T09:43:42.177Z,22.37
2022-10-06T09:46:41.110Z,23.46
2022-10-06T09:49:43.101Z,26.62
2022-10-06T09:52:23.586Z,24.54
2022-10-06T09:55:27.167Z,23.89
2022-10-06T09:58:37.911Z,23.72
2022-10-06T10:01:27.397Z,25.21
2022-10-06T10:04:20.525Z,25.04
2022-10-06T10:07:08.146Z,26.64
2022-10-06T10:09:55.448Z,26.60
2022-10-06T10:12:35.427Z,28.37
2022-10-06T10:15:25.569Z,26.45
2022-10-06T10:18:16.289Z,26.20
2022-10-06T10:21:06.449Z,26.13
2022-10-06T10:24:06.222Z,26.44
2022-10-06T10:26:57.377Z,26.96
2022-10-06T10:30:21.069Z,25.25
2022-10-06T10:33:18.106Z,26.43
2022-10-06T10:36:01.804Z,26.46
2022-10-06T10:38:51.071Z,27.86
2022-10-06T10:41:43.131Z,26.56
2022-10-06T10:44:37.536Z,27.29
2022-10-06T10:47:42.285Z,27.11
2022-10-06T10:50:49.526Z,25.16
2022-10-06T10:53:50.091Z,25.79
2022-10-06T10:56:33.013Z,26.02
2022-10-06T10:59:31.370Z,25.52
2022-10-06T11:02:20.864Z,26.83
2022-10-06T11:05:17.073Z,26.60
2022-10-06T11:08:23.247Z,25.60
2022-10-06T11:11:10.173Z,24.56
2022-10-06T11:14:00.999Z,26.08
2022-10-06T11:16:56.137Z,26.23
2022-10-06T11:19:59.017Z,26.12
2022-10-06T11:23:06.889Z,26.86
2022-10-06T11:26:18.178Z,23.76
2022-10-06T11:29:23.024Z,24.24
2022-10-06T11:32:40.498Z,26.28
2022-10-06T11:35:44.007Z,27.48
2022-10-06T11:38:43.973Z,26.26
2022-10-06T11:41:41.979Z,27.02
2022-10-06T11:44:34.735Z,26.79
2022-10-06T11:47:35.473Z,26.66
2022-10-06T11:50:37.689Z,28.85
2022-10-06T11:53:45.968Z,33.78
2022-10-06T11:56:39.193Z,35.98
2022-10-06T11:59:38.065Z,38.59
2022-10-06T12:02:37.098Z,40.55
2022-10-06T12:05:55.370Z,40.46
2022-10-06T12:08:47.968Z,41.30
2022-10-06T12:11:55.036Z,38.99
2022-10-06T12:18:38.945Z,42.43
2022-10-06T12:21:49.944Z,39.71
2022-10-06T12:25:01.287Z,43.52
2022-10-06T12:28:12.990Z,44.48
2022-10-06T12:31:21.201Z,42.65
2022-10-06T12:34:07.923Z,40.29
2022-10-06T12:36:54.932Z,40.43
2022-10-06T12:39:35.055Z,37.60
2022-10-06T12:42:26.907Z,37.53
2022-10-06T12:45:13.929Z,38.49
2022-10-06T12:48:01.943Z,39.63
2022-10-06T12:50:44.036Z,40.82
2022-10-06T12:53:38.874Z,38.79
2022-10-06T12:56:40.894Z,41.55
2022-10-06T12:59:33.900Z,42.41
2022-10-06T13:02:28.086Z,48.94
2022-10-06T13:05:19.886Z,47.43
2022-10-06T13:08:03.053Z,46.82
2022-10-06T13:10:49.870Z,48.75
2022-10-06T13:13:38.905Z,49.65
2022-10-06T13:16:33.031Z,49.61
2022-10-06T13:19:32.880Z,50.43
2022-10-06T13:22:14.474Z,51.08
2022-10-06T13:25:00.862Z,51.71
2022-10-06T13:27:49.696Z,50.64
2022-10-06T13:30:38.884Z,50.18
2022-10-06T13:33:26.883Z,50.00
2022-10-06T13:36:14.871Z,50.98
2022-10-06T13:39:01.850Z,52.06
2022-10-06T13:41:44.959Z,53.04
2022-10-06T13:44:55.852Z,54.19
2022-10-06T13:47:44.853Z,53.10
2022-10-06T13:50:31.834Z,53.99
2022-10-06T13:53:21.849Z,54.21
2022-10-06T13:56:08.811Z,53.25
2022-10-06T13:58:55.799Z,52.82
2022-10-06T14:01:36.367Z,53.54
2022-10-06T14:04:33.548Z,54.16
2022-10-06T14:07:17.358Z,53.51
2022-10-06T14:10:03.819Z,54.08
2022-10-06T14:12:46.653Z,53.08
2022-10-06T14:15:37.878Z,53.28
2022-10-06T14:18:38.848Z,53.74
2022-10-06T14:21:51.812Z,54.04
2022-10-06T14:24:40.811Z,54.75
2022-10-06T14:27:27.811Z,54.30
2022-10-06T14:30:15.775Z,54.76
2022-10-06T14:33:02.784Z,54.68
2022-10-06T14:35:43.941Z,54.58
2022-10-06T14:38:31.836Z,54.63
2022-10-06T14:41:15.559Z,55.43
2022-10-06T14:44:11.742Z,55.26
2022-10-06T14:46:52.638Z,55.27
2022-10-06T14:49:39.742Z,55.44
2022-10-06T14:52:28.756Z,55.00
2022-10-06T14:55:08.876Z,55.55
2022-10-06T14:57:55.775Z,55.99
2022-10-06T15:00:35.899Z,56.55
2022-10-06T15:03:22.838Z,57.20
2022-10-06T15:06:36.782Z,58.27
2022-10-06T15:09:17.421Z,58.76
2022-10-06T15:27:51.493Z,62.63
2022-10-06T15:30:31.803Z,62.17
2022-10-06T15:33:18.426Z,62.29
2022-10-06T15:36:15.469Z,61.98
2022-10-06T15:39:02.425Z,61.82
2022-10-06T15:41:43.385Z,61.85
2022-10-06T15:44:31.342Z,61.88
2022-10-06T15:47:18.310Z,62.83
2022-10-06T15:50:05.311Z,61.55
2022-10-06T15:52:53.330Z,62.99
2022-10-06T15:55:33.545Z,62.19
2022-10-06T15:58:20.301Z,61.90
2022-10-06T16:01:07.336Z,62.47
2022-10-06T16:03:54.288Z,61.85
2022-10-06T16:06:50.292Z,61.78
2022-10-06T16:09:38.118Z,61.57
2022-10-06T16:12:32.290Z,61.85
2022-10-06T16:15:12.685Z,62.19
2022-10-06T16:17:59.281Z,61.87
2022-10-06T16:20:39.642Z,61.47
2022-10-06T16:23:27.310Z,61.44
2022-10-06T16:26:14.603Z,61.41
2022-10-06T16:28:54.291Z,60.94
2022-10-06T16:31:34.798Z,61.31
2022-10-06T16:34:22.275Z,60.64
2022-10-06T16:37:02.620Z,59.43
2022-10-06T16:39:49.249Z,59.42
2022-10-06T16:42:29.640Z,59.23
2022-10-06T16:45:16.231Z,59.12
2022-10-06T16:47:56.883Z,58.74
2022-10-06T16:50:36.246Z,58.88
2022-10-06T16:53:24.250Z,58.92
2022-10-06T16:56:13.241Z,58.60
2022-10-06T16:58:58.423Z,58.89
2022-10-06T17:01:45.250Z,58.81
2022-10-06T17:04:27.398Z,59.52
2022-10-06T17:07:14.275Z,59.29
2022-10-06T17:10:18.414Z,59.20
2022-10-06T17:12:54.227Z,59.64
2022-10-06T17:15:34.654Z,59.70
2022-10-06T17:18:21.259Z,59.73
2022-10-06T17:21:15.409Z,60.33
2022-10-06T17:24:13.237Z,60.12
2022-10-06T17:27:07.244Z,60.08
2022-10-06T17:29:54.220Z,60.46
2022-10-06T17:32:41.522Z,60.79
2022-10-06T17:35:21.718Z,60.66
2022-10-06T17:38:09.210Z,61.30
2022-10-06T17:40:49.665Z,61.53
2022-10-06T17:43:36.220Z,61.50
2022-10-06T17:46:26.490Z,61.40
2022-10-06T17:49:10.211Z,61.70
2022-10-06T17:51:51.907Z,61.81
2022-10-06T17:54:39.196Z,61.99
2022-10-06T17:57:26.175Z,62.26
2022-10-06T18:00:07.549Z,62.69
2022-10-06T18:02:54.173Z,62.96
2022-10-06T18:05:34.229Z,63.63
2022-10-06T18:08:21.190Z,63.28
2022-10-06T18:11:20.046Z,63.01
2022-10-06T18:14:01.195Z,63.29
2022-10-06T18:16:55.817Z,64.19
2022-10-06T18:19:39.297Z,63.65
2022-10-06T18:22:26.189Z,63.51
2022-10-06T18:25:06.246Z,63.97
2022-10-06T18:27:54.194Z,63.60
2022-10-06T18:30:34.256Z,63.43
2022-10-06T18:36:21.349Z,63.91
2022-10-06T18:39:08.181Z,63.77
2022-10-06T18:41:51.078Z,64.28
2022-10-06T18:44:56.152Z,63.54
2022-10-06T18:47:54.949Z,63.40
2022-10-06T18:50:42.080Z,63.90
2022-10-06T18:53:22.238Z,64.59
2022-10-06T18:56:09.121Z,64.29
2022-10-06T18:58:50.164Z,64.19
2022-10-06T19:01:38.243Z,64.35
2022-10-06T19:04:20.188Z,64.50
2022-10-06T19:07:07.114Z,64.12
2022-10-06T19:09:54.082Z,64.72
2022-10-06T19:12:41.198Z,64.56
2022-10-06T19:15:21.598Z,65.47
2022-10-06T19:18:02.366Z,65.42
2022-10-06T19:20:49.102Z,65.49
2022-10-06T19:23:39.827Z,65.86
2022-10-06T19:26:20.215Z,66.46
2022-10-06T19:29:10.994Z,66.29
2022-10-06T19:31:52.107Z,67.01
2022-10-06T19:34:37.377Z,67.06
2022-10-06T19:37:24.084Z,67.68
2022-10-06T19:40:12.028Z,67.19
2022-10-06T19:42:52.185Z,67.56
2022-10-06T19:45:39.119Z,67.66
2022-10-06T19:48:27.063Z,68.11
2022-10-06T19:51:16.283Z,67.89
2022-10-06T19:54:04.039Z,68.35
2022-10-06T19:56:54.036Z,67.87
2022-10-06T19:59:34.156Z,67.52
2022-10-06T20:02:21.059Z,67.92
2022-10-06T20:05:01.198Z,68.16
2022-10-06T20:07:50.067Z,69.14
2022-10-06T20:10:30.133Z,68.87
2022-10-06T20:13:17.063Z,69.20
2022-10-06T20:15:58.030Z,69.53
2022-10-06T20:18:46.999Z,69.72
2022-10-06T20:21:31.327Z,69.61
2022-10-06T20:24:24.997Z,70.18
2022-10-06T20:27:19.031Z,70.88
2022-10-06T20:29:59.585Z,71.99
2022-10-06T20:32:45.993Z,72.36
2022-10-06T20:35:33.025Z,72.77
2022-10-06T20:38:13.135Z,73.16
2022-10-06T20:40:59.981Z,73.42
2022-10-06T20:43:41.600Z,73.54
2022-10-06T20:46:28.035Z,74.13
2022-10-06T20:49:11.193Z,73.88
2022-10-06T20:51:58.989Z,74.46
2022-10-06T20:54:39.064Z,74.54
2022-10-06T20:57:28.148Z,74.07
2022-10-06T21:00:11.072Z,74.23
2022-10-06T21:02:57.977Z,73.84
2022-10-06T21:05:38.062Z,73.59
2022-10-06T21:08:24.936Z,73.47
2022-10-06T21:11:07.045Z,73.84
2022-10-06T21:14:02.921Z,73.35
2022-10-06T21:16:50.913Z,73.60
2022-10-06T21:19:38.070Z,73.02
2022-10-06T21:22:18.044Z,73.07
2022-10-06T21:25:04.911Z,73.04
2022-10-06T21:27:53.940Z,73.25
2022-10-06T21:30:40.909Z,73.15
2022-10-06T21:33:22.634Z,73.94
2022-10-06T21:36:11.965Z,73.92
2022-10-06T21:38:57.082Z,74.22
2022-10-06T21:41:47.918Z,73.97
2022-10-06T21:44:34.876Z,74.26
2022-10-06T21:47:15.394Z,74.29
2022-10-06T21:50:01.877Z,74.82
2022-10-06T21:52:48.900Z,74.99
2022-10-06T21:55:35.872Z,75.29
2022-10-06T21:58:22.889Z,75.27
2022-10-06T22:01:03.037Z,75.83
2022-10-06T22:03:49.852Z,75.64
2022-10-06T22:06:37.892Z,76.00
2022-10-06T22:09:20.405Z,76.05
2022-10-06T22:12:06.862Z,75.88
2022-10-06T22:14:53.877Z,75.50
2022-10-06T22:17:33.975Z,75.69
2022-10-06T22:20:20.978Z,75.40
2022-10-06T22:23:07.836Z,74.57
2022-10-06T22:26:10.866Z,75.42
2022-10-06T22:28:53.100Z,75.29
2022-10-06T22:31:40.861Z,75.06
2022-10-06T22:34:27.841Z,74.56
2022-10-06T22:37:07.951Z,74.94
2022-10-06T22:39:54.878Z,75.18
2022-10-06T22:42:41.796Z,75.27
2022-10-06T22:45:28.784Z,75.88
2022-10-06T22:48:08.930Z,76.07
2022-10-06T22:50:56.825Z,76.31
2022-10-06T22:53:43.849Z,76.73
2022-10-06T22:56:30.832Z,76.85
2022-10-06T22:59:17.848Z,77.44
2022-10-06T23:02:04.845Z,77.45
2022-10-06T23:04:44.877Z,77.67
2022-10-06T23:07:31.837Z,77.26
2022-10-06T23:10:11.910Z,76.91
2022-10-06T23:13:03.811Z,77.03
2022-10-06T23:15:44.050Z,77.05
2022-10-06T23:18:30.809Z,77.28
2022-10-06T23:21:21.669Z,77.14
2022-10-06T23:24:08.800Z,77.79
2022-10-06T23:27:08.803Z,78.08
2022-10-06T23:29:55.768Z,78.46
2022-10-06T23:32:37.517Z,78.55
2022-10-06T23:35:23.785Z,79.33
2022-10-06T23:38:03.885Z,79.44
2022-10-06T23:40:50.768Z,79.82
2022-10-06T23:43:31.868Z,80.68
2022-10-06T23:46:18.831Z,81.94
2022-10-06T23:48:58.833Z,81.91
2022-10-06T23:51:45.785Z,82.38
2022-10-06T23:54:25.857Z,82.54
2022-10-06T23:57:12.775Z,81.96
2022-10-06T23:59:52.876Z,82.73
